Time;durP1;ratioP1;P1;durP2;ratioP2;P2;SDS_P1;SDS_P2;PMS_P1;PMS_P2;Temp;Humidity;BMP_temperature;BMP_pressure;BME280_temperature;BME280_humidity;BME280_pressure;Samples;Min_cycle;Max_cycle;Signal;HPM_P1;HPM_P2
2021/06/21 00:01:27;;;;;;;17.27;7.38;;;666.50;1484.80;;;;;;5100194;28;20089;-72
2021/06/21 00:03:53;;;;;;;14.00;6.95;;;666.50;1484.80;;;;;;5101853;28;20028;-72
2021/06/21 00:06:20;;;;;;;21.88;7.53;;;666.50;1484.80;;;;;;5098204;28;20036;-77
2021/06/21 00:08:46;;;;;;;22.52;7.95;;;666.40;1510.40;;;;;;5099694;28;20038;-76
2021/06/21 00:11:12;;;;;;;26.50;11.82;;;666.40;1510.40;;;;;;5089324;28;20032;-77
2021/06/21 00:13:37;;;;;;;34.88;12.60;;;666.30;1510.40;;;;;;5089593;28;20047;-75
2021/06/21 00:16:04;;;;;;;22.92;11.05;;;666.10;1536.00;;;;;;5091015;28;20058;-73
2021/06/21 00:18:30;;;;;;;16.48;9.75;;;666.10;1536.00;;;;;;5110211;28;20111;-74
2021/06/21 00:20:55;;;;;;;22.30;9.20;;;666.00;1536.00;;;;;;5113812;28;20488;-76
2021/06/21 00:23:21;;;;;;;20.42;9.13;;;666.00;1536.00;;;;;;5102002;28;20028;-72
2021/06/21 00:25:48;;;;;;;27.98;9.05;;;665.90;1536.00;;;;;;5087853;28;20028;-75
2021/06/21 00:28:15;;;;;;;22.73;9.15;;;665.80;1561.60;;;;;;5072765;28;20099;-76
2021/06/21 00:30:41;;;;;;;14.48;8.02;;;665.70;1587.20;;;;;;5073064;28;20024;-76
2021/06/21 00:33:07;;;;;;;16.85;8.38;;;665.70;1561.60;;;;;;5072753;28;20075;-73
2021/06/21 00:35:34;;;;;;;14.77;8.02;;;665.70;1561.60;;;;;;5072830;28;20021;-74
2021/06/21 00:38:00;;;;;;;14.77;8.65;;;665.60;1561.60;;;;;;5076797;28;20023;-74
2021/06/21 00:40:26;;;;;;;11.95;7.30;;;665.60;1587.20;;;;;;5092965;28;20032;-72
2021/06/21 00:42:52;;;;;;;12.40;7.45;;;665.60;1561.60;;;;;;5093224;28;20050;-76
2021/06/21 00:45:21;;;;;;;17.33;7.28;;;640.80;1561.60;;;;;;5103959;28;20709;-70
2021/06/21 00:47:48;;;;;;;9.88;6.05;;;665.60;1561.60;;;;;;5113037;28;20050;-71
2021/06/21 00:50:14;;;;;;;11.98;5.82;;;640.90;1536.00;;;;;;5079783;28;20026;-71
2021/06/21 00:52:40;;;;;;;12.13;7.03;;;665.60;1561.60;;;;;;5054677;28;20405;-74
2021/06/21 00:55:07;;;;;;;12.95;7.45;;;640.90;1561.60;;;;;;5091242;28;20036;-72
2021/06/21 00:57:37;;;;;;;18.33;7.40;;;640.80;1536.00;;;;;;5092392;28;20107;-72
2021/06/21 01:00:14;;;;;;;12.85;7.05;;;640.90;1536.00;;;;;;5092606;28;20028;-74
2021/06/21 01:02:41;;;;;;;10.95;6.25;;;640.90;1536.00;;;;;;5092524;28;20040;-73
2021/06/21 01:05:15;;;;;;;11.00;6.82;;;640.90;1536.00;;;;;;5092470;28;20023;-74
2021/06/21 01:07:41;;;;;;;15.00;7.78;;;640.90;1536.00;;;;;;5092354;28;20024;-70
2021/06/21 01:10:09;;;;;;;9.45;6.72;;;640.80;1536.00;;;;;;5092673;28;20096;-71
2021/06/21 01:12:56;;;;;;;11.20;6.63;;;640.90;1536.00;;;;;;5092559;28;20349;-75
2021/06/21 01:15:30;;;;;;;13.52;7.43;;;640.80;1536.00;;;;;;5092893;28;20392;-71
2021/06/21 01:18:13;;;;;;;11.00;6.78;;;640.80;1536.00;;;;;;5091817;28;20047;-76
2021/06/21 01:21:17;;;;;;;11.45;7.82;;;640.80;1536.00;;;;;;5092603;28;20046;-77
2021/06/21 01:24:04;;;;;;;12.32;7.30;;;640.80;1536.00;;;;;;5092063;28;20020;-73
2021/06/21 01:26:55;;;;;;;13.77;6.72;;;640.80;1536.00;;;;;;5092551;28;20437;-73
2021/06/21 01:29:25;;;;;;;19.95;7.72;;;640.80;1536.00;;;;;;5091773;28;20031;-76
2021/06/21 01:32:01;;;;;;;14.00;7.43;;;640.70;1536.00;;;;;;5074043;28;20028;-71
2021/06/21 01:34:29;;;;;;;13.52;7.50;;;640.80;1536.00;;;;;;5092113;28;20035;-75
2021/06/21 01:36:59;;;;;;;13.30;7.13;;;640.70;1536.00;;;;;;5092343;28;20028;-76
2021/06/21 01:39:28;;;;;;;9.02;7.47;;;640.70;1536.00;;;;;;5092210;28;20028;-72
2021/06/21 01:42:01;;;;;;;14.10;8.07;;;640.60;1587.20;;;;;;5082404;28;20519;-75
2021/06/21 01:44:30;;;;;;;12.73;6.68;;;640.50;1587.20;;;;;;5096445;28;20372;-72
2021/06/21 01:46:58;;;;;;;14.00;7.00;;;640.60;1561.60;;;;;;5112211;28;20118;-74
2021/06/21 01:49:29;;;;;;;13.95;7.57;;;640.30;1561.60;;;;;;5098495;28;20103;-70
2021/06/21 01:51:58;;;;;;;15.63;7.32;;;640.60;1561.60;;;;;;5079478;28;20028;-70
2021/06/21 01:54:30;;;;;;;16.40;8.52;;;640.60;1587.20;;;;;;5082394;28;20375;-75
2021/06/21 01:56:58;;;;;;;14.20;7.18;;;640.50;1587.20;;;;;;5081639;28;20016;-73
2021/06/21 01:59:27;;;;;;;20.25;7.32;;;640.50;1561.60;;;;;;5080076;28;20033;-72
2021/06/21 02:01:56;;;;;;;16.08;7.30;;;640.50;1587.20;;;;;;5080821;28;20476;-75
2021/06/21 02:04:23;;;;;;;14.55;6.97;;;640.50;1587.20;;;;;;5082092;28;20023;-73
2021/06/21 02:06:50;;;;;;;17.83;7.88;;;640.50;1587.20;;;;;;5092020;28;20028;-74
2021/06/21 02:09:22;;;;;;;12.20;6.88;;;640.50;1561.60;;;;;;5091604;28;20104;-74
2021/06/21 02:11:50;;;;;;;15.57;7.38;;;640.50;1561.60;;;;;;5092013;28;20024;-75
2021/06/21 02:14:24;;;;;;;28.77;8.07;;;640.50;1587.20;;;;;;5091795;28;20032;-74
2021/06/21 02:16:54;;;;;;;33.28;8.32;;;640.50;1561.60;;;;;;5094651;28;20021;-74
2021/06/21 02:19:23;;;;;;;36.60;8.98;;;640.50;1561.60;;;;;;5095051;28;20066;-76
2021/06/21 02:21:50;;;;;;;28.60;7.88;;;640.50;1561.60;;;;;;5095499;28;20032;-73
2021/06/21 02:24:17;;;;;;;16.05;8.15;;;640.50;1561.60;;;;;;5095271;28;20016;-75
2021/06/21 02:26:46;;;;;;;23.33;8.52;;;640.50;1561.60;;;;;;5096050;28;20117;-76
2021/06/21 02:29:17;;;;;;;23.85;7.72;;;640.50;1587.20;;;;;;5095129;28;20470;-76
2021/06/21 02:31:44;;;;;;;16.63;7.95;;;640.30;1587.20;;;;;;5095850;28;20039;-75
2021/06/21 02:34:10;;;;;;;18.85;8.55;;;640.30;1587.20;;;;;;5095748;28;20103;-75
2021/06/21 02:36:36;;;;;;;14.45;7.53;;;640.30;1587.20;;;;;;5095304;28;20051;-74
2021/06/21 02:39:04;;;;;;;14.88;8.02;;;640.30;1587.20;;;;;;5095307;28;20102;-76
2021/06/21 02:41:29;;;;;;;17.20;8.20;;;640.30;1587.20;;;;;;5076836;28;20044;-72
2021/06/21 02:43:55;;;;;;;15.07;7.82;;;640.30;1587.20;;;;;;5095222;28;20433;-74
2021/06/21 02:46:21;;;;;;;16.95;7.72;;;640.30;1587.20;;;;;;5095280;28;20527;-73
2021/06/21 02:48:47;;;;;;;17.88;8.13;;;640.20;1587.20;;;;;;5095347;28;20561;-75
2021/06/21 02:51:38;;;;;;;17.15;8.00;;;640.20;1587.20;;;;;;5094861;28;20020;-73
2021/06/21 02:54:09;;;;;;;13.95;8.10;;;640.20;1587.20;;;;;;5078968;28;20027;-75
2021/06/21 02:56:35;;;;;;;18.50;7.72;;;640.20;1587.20;;;;;;5094681;28;20077;-77
2021/06/21 02:59:08;;;;;;;14.23;8.60;;;640.20;1587.20;;;;;;5094531;28;20024;-75
2021/06/21 03:01:35;;;;;;;;;;;640.20;1612.80;;;;;;5076761;28;20400;-75
2021/06/21 03:04:03;;;;;;;13.35;8.18;;;640.10;1587.20;;;;;;5094453;28;19910;-75
2021/06/21 03:06:31;;;;;;;12.20;8.23;;;640.10;1612.80;;;;;;5076257;28;20396;-73
2021/06/21 03:08:57;;;;;;;19.05;7.88;;;640.10;1612.80;;;;;;5094488;28;20035;-75
2021/06/21 03:11:25;;;;;;;16.42;8.13;;;640.10;1612.80;;;;;;5094611;28;20439;-73
2021/06/21 03:13:54;;;;;;;9.85;6.93;;;640.10;1612.80;;;;;;5094373;28;20115;-74
2021/06/21 03:16:21;;;;;;;21.63;7.97;;;640.10;1612.80;;;;;;5094523;28;20491;-75
2021/06/21 03:18:48;;;;;;;18.40;7.97;;;640.10;1612.80;;;;;;5094281;28;20027;-72
2021/06/21 03:21:17;;;;;;;24.58;9.07;;;640.10;1612.80;;;;;;5094122;28;20028;-75
2021/06/21 03:23:43;;;;;;;20.85;8.13;;;640.10;1612.80;;;;;;5094051;28;20052;-75
2021/06/21 03:26:09;;;;;;;11.88;8.02;;;640.20;1612.80;;;;;;5093807;28;20055;-75
2021/06/21 03:28:35;;;;;;;15.40;8.27;;;640.20;1612.80;;;;;;5094245;28;20107;-74
2021/06/21 03:31:05;;;;;;;14.20;7.60;;;640.20;1612.80;;;;;;5093798;28;20069;-74
2021/06/21 03:33:31;;;;;;;16.95;8.85;;;640.20;1612.80;;;;;;5094315;28;20028;-75
2021/06/21 03:35:57;;;;;;;15.45;7.78;;;640.20;1612.80;;;;;;5093598;28;20463;-76
2021/06/21 03:38:26;;;;;;;14.32;7.75;;;640.10;1612.80;;;;;;5094178;28;20031;-75
2021/06/21 03:40:55;;;;;;;19.17;8.50;;;640.10;1612.80;;;;;;5093273;28;20032;-75
2021/06/21 03:43:23;;;;;;;21.65;7.68;;;640.20;1638.40;;;;;;5094079;28;20035;-75
2021/06/21 03:45:52;;;;;;;10.77;7.47;;;640.20;1638.40;;;;;;5054905;28;20056;-76
2021/06/21 03:48:19;;;;;;;15.07;8.82;;;640.20;1638.40;;;;;;5053437;28;20035;-74
2021/06/21 03:50:45;;;;;;;14.27;7.25;;;640.20;1638.40;;;;;;5053299;28;20118;-75
2021/06/21 03:53:13;;;;;;;12.82;7.88;;;640.30;1638.40;;;;;;5053362;28;20032;-74
2021/06/21 03:55:38;;;;;;;16.08;7.60;;;640.30;1638.40;;;;;;5053545;28;20025;-76
2021/06/21 03:58:05;;;;;;;12.90;8.02;;;640.30;1638.40;;;;;;5053394;28;20021;-75
2021/06/21 04:00:32;;;;;;;15.35;8.18;;;640.50;1612.80;;;;;;5053389;28;20469;-73
2021/06/21 04:02:58;;;;;;;17.13;7.93;;;640.50;1612.80;;;;;;5053127;28;20029;-75
2021/06/21 04:05:25;;;;;;;11.60;7.63;;;640.60;1612.80;;;;;;5053439;28;20028;-76
2021/06/21 04:07:52;;;;;;;14.43;8.48;;;640.60;1612.80;;;;;;5053168;28;20477;-75
2021/06/21 04:10:21;;;;;;;14.23;7.82;;;640.70;1612.80;;;;;;5053035;28;20028;-71
2021/06/21 04:12:49;;;;;;;15.45;7.10;;;640.70;1612.80;;;;;;5053156;28;20104;-73
2021/06/21 04:15:17;;;;;;;14.23;8.40;;;640.80;1587.20;;;;;;5051467;28;20036;-70
2021/06/21 04:17:43;;;;;;;12.68;7.30;;;640.80;1612.80;;;;;;5053052;28;20052;-70
2021/06/21 04:20:13;;;;;;;12.63;5.60;;;640.80;1587.20;;;;;;5052516;28;20025;-70
2021/06/21 04:22:39;;;;;;;8.60;5.38;;;640.90;1587.20;;;;;;5052922;28;20017;-73
2021/06/21 04:25:07;;;;;;;8.52;5.75;;;665.70;1587.20;;;;;;5052708;28;20031;-75
2021/06/21 04:27:33;;;;;;;8.52;5.30;;;665.70;1587.20;;;;;;5052926;28;20025;-75
2021/06/21 04:29:59;;;;;;;9.32;5.30;;;665.80;1587.20;;;;;;5052327;28;20031;-76
2021/06/21 04:32:25;;;;;;;7.25;5.30;;;665.80;1561.60;;;;;;5052676;28;20025;-72
2021/06/21 04:34:51;;;;;;;6.00;5.20;;;665.80;1561.60;;;;;;5052460;28;20468;-71
2021/06/21 04:37:16;;;;;;;7.28;4.75;;;665.90;1561.60;;;;;;5052628;28;20032;-76
2021/06/21 04:39:42;;;;;;;10.27;4.55;;;666.00;1536.00;;;;;;5051953;28;20021;-73
2021/06/21 04:42:08;;;;;;;8.98;5.15;;;666.10;1536.00;;;;;;5052133;28;20043;-75
2021/06/21 04:44:34;;;;;;;7.18;4.18;;;666.10;1536.00;;;;;;5065823;28;20064;-75
2021/06/21 04:47:00;;;;;;;5.13;4.63;;;666.20;1536.00;;;;;;5092492;28;20128;-74
2021/06/21 04:49:26;;;;;;;8.07;4.68;;;666.20;1536.00;;;;;;5092826;28;20027;-74
2021/06/21 04:51:52;;;;;;;12.13;4.93;;;666.30;1536.00;;;;;;5092100;28;20020;-75
2021/06/21 04:54:18;;;;;;;5.15;4.28;;;666.30;1510.40;;;;;;5092773;28;20024;-76
2021/06/21 04:56:44;;;;;;;9.43;4.38;;;666.40;1536.00;;;;;;5092557;28;20098;-75
2021/06/21 04:59:10;;;;;;;7.55;3.63;;;666.30;1536.00;;;;;;5092579;28;20036;-73
2021/06/21 05:01:36;;;;;;;6.00;4.60;;;666.40;1510.40;;;;;;5092778;28;20046;-75
2021/06/21 05:04:04;;;;;;;8.38;4.10;;;666.40;1510.40;;;;;;5092377;28;20077;-74
2021/06/21 05:06:34;;;;;;;13.80;4.47;;;666.50;1510.40;;;;;;5092982;28;20057;-75
2021/06/21 05:09:00;;;;;;;9.13;4.07;;;666.50;1510.40;;;;;;5092181;28;20028;-73
2021/06/21 05:11:27;;;;;;;6.43;3.88;;;666.50;1510.40;;;;;;5092249;28;20024;-71
2021/06/21 05:13:53;;;;;;;5.57;3.50;;;691.20;1510.40;;;;;;5092500;28;20035;-71
2021/06/21 05:16:19;;;;;;;5.88;3.90;;;691.20;1510.40;;;;;;5092392;28;20032;-74
2021/06/21 05:18:45;;;;;;;11.45;4.25;;;691.20;1510.40;;;;;;5092066;28;20073;-73
2021/06/21 05:21:11;;;;;;;7.25;4.35;;;691.30;1510.40;;;;;;5091701;28;20036;-75
2021/06/21 05:23:37;;;;;;;7.45;3.97;;;691.30;1510.40;;;;;;5092073;28;20065;-74
2021/06/21 05:26:03;;;;;;;14.18;4.13;;;691.30;1510.40;;;;;;5091844;28;20036;-75
2021/06/21 05:28:29;;;;;;;8.32;4.32;;;691.30;1510.40;;;;;;5074278;28;20023;-72
2021/06/21 05:30:55;;;;;;;5.20;3.83;;;691.40;1510.40;;;;;;5091950;28;20020;-72
2021/06/21 05:33:21;;;;;;;11.23;3.78;;;691.50;1536.00;;;;;;5074123;28;20021;-73
2021/06/21 05:35:47;;;;;;;7.60;3.38;;;691.40;1510.40;;;;;;5091886;28;20055;-74
2021/06/21 05:38:12;;;;;;;6.32;3.55;;;691.50;1510.40;;;;;;5092278;28;20035;-72
2021/06/21 05:40:38;;;;;;;7.93;3.53;;;691.50;1510.40;;;;;;5092100;28;20040;-69
2021/06/21 05:43:04;;;;;;;5.95;3.70;;;691.50;1510.40;;;;;;5073734;28;20032;-74
2021/06/21 05:45:30;;;;;;;7.20;3.63;;;691.60;1510.40;;;;;;5091955;28;20123;-75
2021/06/21 05:47:56;;;;;;;7.72;3.92;;;691.60;1484.80;;;;;;5091694;28;20024;-73
2021/06/21 05:50:22;;;;;;;6.68;3.90;;;691.60;1510.40;;;;;;5094588;28;20020;-71
2021/06/21 05:52:49;;;;;;;8.32;3.97;;;691.70;1510.40;;;;;;5095586;28;20356;-74
2021/06/21 05:55:19;;;;;;;11.20;3.67;;;691.80;1536.00;;;;;;5096327;28;20050;-73
2021/06/21 05:57:46;;;;;;;10.52;3.80;;;691.80;1510.40;;;;;;5095802;28;20022;-71
2021/06/21 06:00:13;;;;;;;6.28;3.70;;;691.90;1484.80;;;;;;5095875;28;20107;-72
2021/06/21 06:02:39;;;;;;;8.57;3.92;;;691.90;1484.80;;;;;;5095766;28;20055;-73
2021/06/21 06:05:06;;;;;;;9.88;4.10;;;691.90;1484.80;;;;;;5095712;28;20080;-73
2021/06/21 06:07:33;;;;;;;8.18;3.90;;;692.00;1484.80;;;;;;5095842;28;20028;-73
2021/06/21 06:09:59;;;;;;;7.03;3.72;;;692.00;1484.80;;;;;;5095495;28;20031;-74
2021/06/21 06:12:25;;;;;;;6.45;3.58;;;692.10;1484.80;;;;;;5095953;28;20379;-72
2021/06/21 06:14:51;;;;;;;6.80;3.80;;;692.10;1484.80;;;;;;5095492;28;20020;-74
2021/06/21 06:17:17;;;;;;;10.40;3.58;;;716.80;1536.00;;;;;;5095617;28;20024;-73
2021/06/21 06:19:44;;;;;;;7.03;3.50;;;716.80;1510.40;;;;;;5095682;28;20162;-75
2021/06/21 06:22:11;;;;;;;7.35;3.50;;;716.90;1484.80;;;;;;5095156;28;20479;-73
2021/06/21 06:24:37;;;;;;;13.13;3.80;;;716.90;1484.80;;;;;;5095376;28;20028;-70
2021/06/21 06:27:04;;;;;;;6.85;4.05;;;717.00;1484.80;;;;;;5095419;28;20046;-73
2021/06/21 06:29:32;;;;;;;3.75;3.25;;;717.00;1484.80;;;;;;5092818;28;20415;-71
2021/06/21 06:31:59;;;;;;;9.18;3.72;;;717.20;1484.80;;;;;;5077257;28;20017;-76
2021/06/21 06:34:25;;;;;;;9.63;3.83;;;717.20;1459.20;;;;;;5077708;28;20027;-70
2021/06/21 06:36:52;;;;;;;5.97;3.70;;;717.20;1484.80;;;;;;5084699;28;20060;-75
2021/06/21 06:39:18;;;;;;;12.93;3.78;;;717.40;1459.20;;;;;;5083851;28;20024;-75
2021/06/21 06:41:44;;;;;;;10.23;4.15;;;717.50;1484.80;;;;;;5085200;28;20082;-76
2021/06/21 06:44:09;;;;;;;17.92;4.28;;;717.60;1459.20;;;;;;5085411;28;20488;-74
2021/06/21 06:46:35;;;;;;;9.60;3.97;;;717.60;1459.20;;;;;;5085454;28;20035;-72
2021/06/21 06:49:01;;;;;;;11.07;3.70;;;742.40;1484.80;;;;;;5083301;28;20476;-76
2021/06/21 06:51:31;;;;;;;7.90;3.67;;;742.40;1459.20;;;;;;5084952;28;20028;-72
2021/06/21 06:54:05;;;;;;;6.90;3.55;;;742.40;1459.20;;;;;;5084895;28;20039;-71
2021/06/21 06:59:16;;;;;;;6.15;3.38;;;742.60;1433.60;;;;;;5082720;28;20509;-76
2021/06/21 07:01:42;;;;;;;10.07;3.45;;;742.60;1433.60;;;;;;5086612;28;20097;-74
2021/06/21 07:04:08;;;;;;;12.70;4.30;;;742.60;1433.60;;;;;;5094491;28;20026;-72
2021/06/21 07:06:34;;;;;;;8.13;3.90;;;742.60;1433.60;;;;;;5093263;28;20028;-70
2021/06/21 07:09:00;;;;;;;7.75;3.50;;;742.70;1433.60;;;;;;5076455;28;20032;-69
2021/06/21 07:11:26;;;;;;;10.48;3.60;;;742.70;1433.60;;;;;;5094742;28;20028;-75
2021/06/21 07:13:52;;;;;;;12.45;4.18;;;742.70;1408.00;;;;;;5087803;28;20070;-71
2021/06/21 07:16:18;;;;;;;10.05;4.20;;;742.70;1408.00;;;;;;5058685;28;20384;-73
2021/06/21 07:18:44;;;;;;;11.95;3.92;;;742.80;1408.00;;;;;;5079927;28;20017;-74
2021/06/21 07:21:10;;;;;;;8.48;3.55;;;743.00;1408.00;;;;;;5082318;28;20542;-75
2021/06/21 07:23:36;;;;;;;8.00;3.40;;;743.00;1408.00;;;;;;5083901;28;20023;-70
2021/06/21 07:26:02;;;;;;;7.65;3.58;;;743.10;1382.40;;;;;;5084230;28;20077;-74
2021/06/21 07:28:28;;;;;;;7.38;3.08;;;743.10;1382.40;;;;;;5082856;28;20017;-74
2021/06/21 07:30:54;;;;;;;9.57;3.80;;;743.20;1382.40;;;;;;5083848;28;20027;-72
2021/06/21 07:33:20;;;;;;;6.57;3.15;;;743.30;1356.80;;;;;;5081586;28;20472;-73
2021/06/21 07:35:46;;;;;;;7.13;3.25;;;768.00;1356.80;;;;;;5082767;28;20027;-76
2021/06/21 07:38:12;;;;;;;10.38;3.78;;;768.00;1331.20;;;;;;5065477;28;20024;-76
2021/06/21 07:40:38;;;;;;;8.18;3.30;;;768.10;1331.20;;;;;;5080551;28;20037;-74
2021/06/21 07:43:05;;;;;;;7.35;3.67;;;768.20;1331.20;;;;;;5082777;28;20028;-71
2021/06/21 07:45:31;;;;;;;11.35;3.55;;;768.20;1331.20;;;;;;5087110;28;20070;-70
2021/06/21 07:47:58;;;;;;;12.05;3.53;;;768.20;1356.80;;;;;;5090899;28;20028;-72
2021/06/21 07:50:30;;;;;;;8.38;3.40;;;768.20;1305.60;;;;;;5093905;28;20028;-76
2021/06/21 07:52:57;;;;;;;11.60;4.00;;;768.20;1331.20;;;;;;5093969;28;20487;-76
2021/06/21 07:55:27;;;;;;;6.53;3.30;;;768.30;1305.60;;;;;;5093639;28;20464;-72
2021/06/21 07:57:53;;;;;;;12.00;3.90;;;768.30;1331.20;;;;;;5092680;28;20031;-73
2021/06/21 08:00:22;;;;;;;7.50;3.33;;;768.40;1331.20;;;;;;5093240;28;20380;-72
2021/06/21 08:02:48;;;;;;;6.68;3.13;;;768.50;1331.20;;;;;;5092801;28;20024;-73
2021/06/21 08:05:14;;;;;;;10.50;4.05;;;768.50;1331.20;;;;;;5091857;28;20024;-73
2021/06/21 08:07:42;;;;;;;7.50;3.13;;;768.70;1305.60;;;;;;5092053;28;20434;-72
2021/06/21 08:10:08;;;;;;;9.38;3.65;;;768.70;1305.60;;;;;;5091601;28;20019;-74
2021/06/21 08:12:35;;;;;;;15.05;3.95;;;768.70;1305.60;;;;;;5091522;28;20376;-71
2021/06/21 08:15:00;;;;;;;7.85;3.38;;;768.70;1331.20;;;;;;5091064;28;20473;-70
2021/06/21 08:17:26;;;;;;;7.70;3.40;;;768.70;1331.20;;;;;;5091593;28;20137;-74
2021/06/21 08:19:52;;;;;;;8.02;4.15;;;768.70;1305.60;;;;;;5091537;28;20490;-69
2021/06/21 08:22:21;;;;;;;5.40;3.25;;;768.80;1254.40;;;;;;5073690;28;20032;-76
2021/06/21 08:24:48;;;;;;;6.97;3.55;;;768.80;1305.60;;;;;;5091695;28;20039;-73
2021/06/21 08:27:15;;;;;;;7.25;3.70;;;768.80;1305.60;;;;;;5093336;28;20028;-72
2021/06/21 08:29:42;;;;;;;10.15;3.53;;;768.90;1305.60;;;;;;5093090;28;20502;-71
2021/06/21 08:32:08;;;;;;;4.68;3.20;;;768.90;1305.60;;;;;;5092969;28;20028;-70
2021/06/21 08:34:34;;;;;;;10.07;3.33;;;793.60;1305.60;;;;;;5092844;28;20561;-72
2021/06/21 08:37:00;;;;;;;11.23;3.30;;;793.60;1305.60;;;;;;5074741;28;20047;-71
2021/06/21 08:39:25;;;;;;;6.70;3.00;;;793.60;1280.00;;;;;;5093026;28;20024;-73
2021/06/21 08:41:54;;;;;;;10.18;3.50;;;793.70;1305.60;;;;;;5092662;28;20085;-74
2021/06/21 08:44:20;;;;;;;7.88;3.30;;;793.70;1280.00;;;;;;5091390;28;20097;-70
2021/06/21 08:46:49;;;;;;;7.38;3.45;;;793.80;1280.00;;;;;;5086597;28;20029;-70
2021/06/21 08:49:17;;;;;;;8.43;3.50;;;793.90;1254.40;;;;;;5072793;28;20358;-73
2021/06/21 08:51:42;;;;;;;11.57;3.65;;;793.90;1254.40;;;;;;5072622;28;20554;-71
2021/06/21 08:54:08;;;;;;;4.68;3.35;;;794.00;1280.00;;;;;;5083025;28;20020;-72
2021/06/21 08:56:34;;;;;;;8.65;3.53;;;793.90;1280.00;;;;;;5092626;28;20031;-71
2021/06/21 08:59:07;;;;;;;5.88;3.20;;;793.90;1280.00;;;;;;5092646;28;20103;-71
2021/06/21 09:01:37;;;;;;;;;;;793.90;1280.00;;;;;;5093276;28;20089;-69
2021/06/21 09:04:03;;;;;;;4.03;3.08;;;793.80;1280.00;;;;;;5092661;28;20442;-71
2021/06/21 09:06:36;;;;;;;6.88;3.50;;;793.80;1280.00;;;;;;5071279;28;20071;-72
2021/06/21 09:09:02;;;;;;;;;;;793.80;1280.00;;;;;;5065486;28;20028;-69
2021/06/21 09:11:46;;;;;;;5.60;2.97;;;793.80;1280.00;;;;;;5077374;28;20304;-69
2021/06/21 09:14:31;;;;;;;7.18;3.42;;;793.80;1254.40;;;;;;5081664;28;20024;-73
2021/06/21 09:17:02;;;;;;;4.75;3.22;;;793.80;1254.40;;;;;;5081625;28;20087;-72
2021/06/21 09:19:29;;;;;;;8.90;3.53;;;793.80;1280.00;;;;;;5080748;28;20069;-70
2021/06/21 09:21:55;;;;;;;7.40;3.50;;;793.70;1280.00;;;;;;5088139;28;20044;-74
2021/06/21 09:24:24;;;;;;;6.90;3.83;;;793.80;1280.00;;;;;;5083441;28;20483;-69
2021/06/21 09:26:58;;;;;;;12.30;3.78;;;793.70;1254.40;;;;;;5084270;28;20032;-71
2021/06/21 09:29:38;;;;;;;6.80;3.55;;;793.70;1254.40;;;;;;5076584;28;20023;-70
2021/06/21 09:32:05;;;;;;;8.50;3.80;;;793.70;1254.40;;;;;;5080370;28;20027;-73
2021/06/21 09:34:31;;;;;;;7.35;3.70;;;793.70;1280.00;;;;;;5063415;28;20170;-70
2021/06/21 09:37:10;;;;;;;6.93;3.50;;;793.70;1280.00;;;;;;5061334;28;20013;-71
2021/06/21 09:39:45;;;;;;;5.32;3.60;;;793.70;1280.00;;;;;;5061503;28;20017;-70
2021/06/21 09:42:14;;;;;;;7.05;3.17;;;793.70;1280.00;;;;;;5079620;28;20032;-73
2021/06/21 09:44:42;;;;;;;7.65;3.00;;;793.80;1254.40;;;;;;5080143;28;20766;-70
2021/06/21 09:47:19;;;;;;;7.47;3.70;;;793.80;1280.00;;;;;;5080957;28;20480;-72
2021/06/21 09:50:13;;;;;;;6.15;3.08;;;793.80;1254.40;;;;;;5075729;28;20025;-73
2021/06/21 09:52:46;;;;;;;8.43;2.95;;;793.90;1254.40;;;;;;5087928;28;20384;-72
2021/06/21 09:55:17;;;;;;;6.07;2.88;;;794.00;1228.80;;;;;;5082193;28;20491;-72
2021/06/21 09:57:44;;;;;;;6.03;3.13;;;794.10;1254.40;;;;;;5091811;28;20032;-72
2021/06/21 10:00:14;;;;;;;8.40;3.58;;;794.00;1228.80;;;;;;5091551;28;20020;-70
2021/06/21 10:02:40;;;;;;;12.88;3.95;;;793.90;1228.80;;;;;;5091958;28;20028;-71
2021/06/21 10:05:20;;;;;;;5.82;3.40;;;793.90;1254.40;;;;;;5090146;28;20507;-71
2021/06/21 10:07:46;;;;;;;7.82;3.53;;;793.80;1254.40;;;;;;5091984;28;20024;-71
2021/06/21 10:10:16;;;;;;;7.82;3.38;;;793.80;1228.80;;;;;;5091803;28;20035;-70
2021/06/21 10:12:42;;;;;;;10.95;3.40;;;793.80;1280.00;;;;;;5092340;28;20024;-71
2021/06/21 10:15:10;;;;;;;6.07;3.65;;;793.80;1280.00;;;;;;5091726;28;20103;-72
2021/06/21 10:17:37;;;;;;;11.18;3.35;;;793.70;1280.00;;;;;;5073406;28;20563;-70
2021/06/21 10:20:05;;;;;;;11.98;3.53;;;793.80;1254.40;;;;;;5091964;28;20024;-70
2021/06/21 10:22:31;;;;;;;8.27;3.55;;;793.80;1280.00;;;;;;5091514;28;20503;-72
2021/06/21 10:24:58;;;;;;;7.72;3.83;;;793.70;1280.00;;;;;;5073871;28;20021;-72
2021/06/21 10:27:26;;;;;;;8.07;3.50;;;793.70;1254.40;;;;;;5091407;28;20024;-71
2021/06/21 10:29:55;;;;;;;7.93;3.20;;;793.80;1280.00;;;;;;5091480;28;20052;-70
2021/06/21 10:32:23;;;;;;;9.55;3.85;;;793.80;1280.00;;;;;;5091614;28;20032;-72
2021/06/21 10:34:49;;;;;;;5.68;3.22;;;793.90;1254.40;;;;;;5091639;28;20077;-72
2021/06/21 10:37:21;;;;;;;8.73;3.72;;;794.00;1254.40;;;;;;5075162;28;20073;-72
2021/06/21 10:39:53;;;;;;;4.10;3.70;;;794.00;1254.40;;;;;;5095228;28;20105;-70
2021/06/21 10:42:45;;;;;;;5.03;3.40;;;794.10;1254.40;;;;;;5095517;28;20225;-72
2021/06/21 10:45:27;;;;;;;6.95;3.83;;;794.10;1254.40;;;;;;5093760;28;20051;-72
2021/06/21 10:48:10;;;;;;;7.03;3.50;;;794.10;1203.20;;;;;;5094924;28;20020;-73
2021/06/21 10:50:53;;;;;;;9.57;3.30;;;794.10;1228.80;;;;;;5077004;28;20311;-72
2021/06/21 10:53:19;;;;;;;8.07;3.13;;;794.10;1228.80;;;;;;5077014;28;20028;-71
2021/06/21 10:55:53;;;;;;;10.45;4.05;;;794.10;1177.60;;;;;;5076479;28;20074;-72
2021/06/21 10:58:19;;;;;;;8.70;3.63;;;794.10;1177.60;;;;;;5094849;28;20099;-72
2021/06/21 11:00:51;;;;;;;6.00;2.92;;;794.10;1203.20;;;;;;5094270;28;20103;-72
2021/06/21 11:03:26;;;;;;;8.52;3.55;;;794.10;1203.20;;;;;;5091805;28;20028;-75
2021/06/21 11:05:54;;;;;;;6.07;3.10;;;794.20;1203.20;;;;;;5094528;28;20020;-70
2021/06/21 11:08:45;;;;;;;17.90;3.75;;;794.30;1203.20;;;;;;5092800;28;20397;-71
2021/06/21 11:11:35;;;;;;;9.35;3.45;;;794.20;1177.60;;;;;;5074378;28;20087;-72
2021/06/21 11:14:10;;;;;;;21.80;16.92;;;794.30;1177.60;;;;;;5074359;28;20070;-70
2021/06/21 11:16:39;;;;;;;14.52;11.20;;;794.30;1177.60;;;;;;5074115;28;20031;-75
2021/06/21 11:19:20;;;;;;;19.02;6.97;;;794.30;1177.60;;;;;;5055965;28;20082;-71
2021/06/21 11:22:01;;;;;;;16.80;5.93;;;794.40;1177.60;;;;;;5078990;28;20031;-70
2021/06/21 11:27:00;;;;;;;27.13;6.75;;;794.50;1152.00;;;;;;5072046;28;20403;-67
2021/06/21 11:29:37;;;;;;;10.13;4.07;;;819.20;1152.00;;;;;;5064504;28;20389;-69
2021/06/21 11:32:05;;;;;;;8.63;4.75;;;819.20;1152.00;;;;;;5058800;28;20070;-69
2021/06/21 11:34:51;;;;;;;14.73;6.90;;;819.40;1126.40;;;;;;5060022;28;20032;-70
2021/06/21 11:37:35;;;;;;;14.13;4.18;;;819.40;1152.00;;;;;;5062969;28;20380;-71
2021/06/21 11:40:22;;;;;;;8.65;4.10;;;819.50;1152.00;;;;;;5061207;28;20017;-70
2021/06/21 11:42:56;;;;;;;9.98;4.55;;;819.60;1177.60;;;;;;5060274;28;20052;-69
2021/06/21 11:45:52;;;;;;;11.52;4.22;;;819.60;1177.60;;;;;;5061736;28;20021;-67
2021/06/21 11:48:23;;;;;;;12.10;5.07;;;819.60;1152.00;;;;;;5062202;28;20024;-70
2021/06/21 11:50:50;;;;;;;10.63;4.73;;;819.70;1152.00;;;;;;5055144;28;20033;-67
2021/06/21 11:53:17;;;;;;;9.55;4.00;;;819.70;1075.20;;;;;;5053840;28;20013;-68
2021/06/21 11:55:42;;;;;;;15.15;4.47;;;819.70;1075.20;;;;;;5056370;28;20029;-68
2021/06/21 11:58:09;;;;;;;8.18;4.78;;;819.70;1126.40;;;;;;5051184;28;20036;-68
2021/06/21 12:00:35;;;;;;;16.23;5.13;;;819.70;1152.00;;;;;;5061591;28;20039;-68
2021/06/21 12:03:09;;;;;;;12.02;3.97;;;819.70;1152.00;;;;;;5061171;28;20029;-67
2021/06/21 12:05:35;;;;;;;11.00;5.30;;;819.80;1126.40;;;;;;5059457;28;20017;-67
2021/06/21 12:08:13;;;;;;;14.65;4.75;;;819.70;1126.40;;;;;;5059995;28;20028;-68
2021/06/21 12:10:39;;;;;;;11.48;4.40;;;819.70;1126.40;;;;;;5059854;28;20028;-67
2021/06/21 12:13:05;;;;;;;12.52;5.35;;;819.70;1126.40;;;;;;5060998;28;20021;-69
2021/06/21 12:15:34;;;;;;;11.70;4.88;;;819.70;1152.00;;;;;;5059369;28;20024;-70
2021/06/21 12:18:00;;;;;;;6.78;3.90;;;819.70;1152.00;;;;;;5060166;28;20036;-68
2021/06/21 12:20:27;;;;;;;11.43;4.63;;;819.70;1152.00;;;;;;5059447;28;20034;-68
2021/06/21 12:22:59;;;;;;;8.82;4.22;;;819.70;1152.00;;;;;;5062363;28;20112;-67
2021/06/21 12:25:45;;;;;;;14.87;4.47;;;819.70;1177.60;;;;;;5059751;28;20110;-67
2021/06/21 12:28:21;;;;;;;14.90;4.75;;;819.70;1152.00;;;;;;5058139;28;20502;-68